Greenwood Village, Colorado
Current Conditions -  °F | °C
As of 10:53 AM on Wednesday 28 Jan 2015 (Local Time) from KAPA Reporting Station
Few Clouds Few Clouds  
Wind Chill: 55°   Ceiling: Unl
Heat Index: 55°   Visibility: 10mi
Dew Point: 19°   Wind: 10mph
Humidity: 24%   Direction: 280°W
Pressure: 30.09"   Gusts: NA
Location:  39.6443°N, 104.983°W
Report Text: KAPA 281753Z 28009KT 10SM FEW100 FEW150 FEW200 13/M07 A3009 RMK AO2 SLP167 T01281072 10128 20022 51007
Loading
Personal Weather Stations






























Interactive Weather Map New forecast layout! Learn more

10-Day Weather Forecast

Advertisements
Track Severe Weather on mobile